sensor_id;sensor_type;location;lat;lon;timestamp;temperature;humidity
6822;DHT22;3449;48.728;8.968;2023-03-01T00:01:29;-2.90;99.90
6822;DHT22;3449;48.728;8.968;2023-03-01T00:03:57;-2.90;99.90
6822;DHT22;3449;48.728;8.968;2023-03-01T00:06:25;-2.90;99.90
6822;DHT22;3449;48.728;8.968;2023-03-01T00:08:55;-2.90;99.90
6822;DHT22;3449;48.728;8.968;2023-03-01T00:11:24;-2.90;99.90
6822;DHT22;3449;48.728;8.968;2023-03-01T00:13:53;-2.90;99.90
6822;DHT22;3449;48.728;8.968;2023-03-01T00:16:22;-2.90;99.90
6822;DHT22;3449;48.728;8.968;2023-03-01T00:18:51;-2.90;99.90
6822;DHT22;3449;48.728;8.968;2023-03-01T00:21:19;-3.00;99.90
6822;DHT22;3449;48.728;8.968;2023-03-01T00:23:46;-2.90;99.90
6822;DHT22;3449;48.728;8.968;2023-03-01T00:26:14;-3.00;99.90
6822;DHT22;3449;48.728;8.968;2023-03-01T00:28:42;-3.00;99.90
6822;DHT22;3449;48.728;8.968;2023-03-01T00:31:11;-2.90;99.90
6822;DHT22;3449;48.728;8.968;2023-03-01T00:33:38;-2.90;99.90
6822;DHT22;3449;48.728;8.968;2023-03-01T00:36:08;-2.90;99.90
6822;DHT22;3449;48.728;8.968;2023-03-01T00:38:36;-2.90;99.90
6822;DHT22;3449;48.728;8.968;2023-03-01T00:41:04;-2.90;99.90
6822;DHT22;3449;48.728;8.968;2023-03-01T00:43:31;-2.90;99.90
6822;DHT22;3449;48.728;8.968;2023-03-01T00:46:02;-2.90;99.90
6822;DHT22;3449;48.728;8.968;2023-03-01T00:48:29;-2.90;99.90
6822;DHT22;3449;48.728;8.968;2023-03-01T00:50:55;-2.90;99.90
6822;DHT22;3449;48.728;8.968;2023-03-01T00:53:24;-2.90;99.90
6822;DHT22;3449;48.728;8.968;2023-03-01T00:55:50;-2.90;99.90
6822;DHT22;3449;48.728;8.968;2023-03-01T00:58:17;-2.90;99.90
6822;DHT22;3449;48.728;8.968;2023-03-01T01:00:44;-3.00;99.90
6822;DHT22;3449;48.728;8.968;2023-03-01T01:03:11;-3.00;99.90
6822;DHT22;3449;48.728;8.968;2023-03-01T01:05:38;-3.00;99.90
6822;DHT22;3449;48.728;8.968;2023-03-01T01:08:05;-3.00;99.90
6822;DHT22;3449;48.728;8.968;2023-03-01T01:10:35;-3.10;99.90
6822;DHT22;3449;48.728;8.968;2023-03-01T01:13:02;-3.10;99.90
6822;DHT22;3449;48.728;8.968;2023-03-01T01:15:31;-3.10;99.90
6822;DHT22;3449;48.728;8.968;2023-03-01T01:17:59;-3.20;99.90
6822;DHT22;3449;48.728;8.968;2023-03-01T01:20:26;-3.20;99.90
6822;DHT22;3449;48.728;8.968;2023-03-01T01:22:53;-3.20;99.90
6822;DHT22;3449;48.728;8.968;2023-03-01T01:25:21;-3.20;99.90
6822;DHT22;3449;48.728;8.968;2023-03-01T01:27:51;-3.20;99.90
6822;DHT22;3449;48.728;8.968;2023-03-01T01:30:18;-3.30;99.90
6822;DHT22;3449;48.728;8.968;2023-03-01T01:32:45;-3.30;99.90
6822;DHT22;3449;48.728;8.968;2023-03-01T01:35:12;-3.40;99.90
6822;DHT22;3449;48.728;8.968;2023-03-01T01:37:39;-3.40;99.90
6822;DHT22;3449;48.728;8.968;2023-03-01T01:40:08;-3.40;99.90
6822;DHT22;3449;48.728;8.968;2023-03-01T01:42:35;-3.50;99.90
6822;DHT22;3449;48.728;8.968;2023-03-01T01:45:27;-3.50;99.90
6822;DHT22;3449;48.728;8.968;2023-03-01T01:47:56;-3.50;99.90
6822;DHT22;3449;48.728;8.968;2023-03-01T01:50:24;-3.50;99.90
6822;DHT22;3449;48.728;8.968;2023-03-01T01:52:53;-3.50;99.90
6822;DHT22;3449;48.728;8.968;2023-03-01T01:55:24;-3.50;99.90
6822;DHT22;3449;48.728;8.968;2023-03-01T01:57:56;-3.50;99.90
6822;DHT22;3449;48.728;8.968;2023-03-01T02:00:28;-3.50;99.90
6822;DHT22;3449;48.728;8.968;2023-03-01T02:02:57;-3.50;99.90
6822;DHT22;3449;48.728;8.968;2023-03-01T02:05:30;-3.50;99.90
6822;DHT22;3449;48.728;8.968;2023-03-01T02:07:59;-3.40;99.90
6822;DHT22;3449;48.728;8.968;2023-03-01T02:10:28;-3.50;99.90
6822;DHT22;3449;48.728;8.968;2023-03-01T02:12:55;-3.50;99.90
6822;DHT22;3449;48.728;8.968;2023-03-01T02:15:23;-3.50;99.90
6822;DHT22;3449;48.728;8.968;2023-03-01T02:17:53;-3.50;99.90
6822;DHT22;3449;48.728;8.968;2023-03-01T02:20:27;-3.50;99.90
6822;DHT22;3449;48.728;8.968;2023-03-01T02:22:57;-3.40;99.90
6822;DHT22;3449;48.728;8.968;2023-03-01T02:25:30;-3.40;99.90
6822;DHT22;3449;48.728;8.968;2023-03-01T02:28:05;-3.30;99.90
6822;DHT22;3449;48.728;8.968;2023-03-01T02:30:34;-3.30;99.90
6822;DHT22;3449;48.728;8.968;2023-03-01T02:33:03;-3.10;99.90
6822;DHT22;3449;48.728;8.968;2023-03-01T02:35:32;-3.20;99.90
6822;DHT22;3449;48.728;8.968;2023-03-01T02:38:00;-3.20;99.90
6822;DHT22;3449;48.728;8.968;2023-03-01T02:40:28;-3.10;99.90
6822;DHT22;3449;48.728;8.968;2023-03-01T02:42:58;-3.10;99.90
6822;DHT22;3449;48.728;8.968;2023-03-01T02:45:26;-3.00;99.90
6822;DHT22;3449;48.728;8.968;2023-03-01T02:47:55;-3.00;99.90
6822;DHT22;3449;48.728;8.968;2023-03-01T02:50:45;-2.90;99.90
6822;DHT22;3449;48.728;8.968;2023-03-01T02:53:19;-2.90;99.90
6822;DHT22;3449;48.728;8.968;2023-03-01T02:55:48;-2.90;99.90
6822;DHT22;3449;48.728;8.968;2023-03-01T02:58:16;-2.80;99.90
6822;DHT22;3449;48.728;8.968;2023-03-01T03:00:43;-2.80;99.90
6822;DHT22;3449;48.728;8.968;2023-03-01T03:03:15;-2.80;99.90
6822;DHT22;3449;48.728;8.968;2023-03-01T03:05:43;-2.80;99.90
6822;DHT22;3449;48.728;8.968;2023-03-01T03:08:10;-2.70;99.90
6822;DHT22;3449;48.728;8.968;2023-03-01T03:10:39;-2.70;99.90
6822;DHT22;3449;48.728;8.968;2023-03-01T03:13:08;-2.70;99.90
6822;DHT22;3449;48.728;8.968;2023-03-01T03:15:35;-2.60;99.90
6822;DHT22;3449;48.728;8.968;2023-03-01T03:18:05;-2.60;99.90
6822;DHT22;3449;48.728;8.968;2023-03-01T03:20:34;-2.60;99.90
6822;DHT22;3449;48.728;8.968;2023-03-01T03:23:03;-2.60;99.90
6822;DHT22;3449;48.728;8.968;2023-03-01T03:25:30;-2.60;99.90
6822;DHT22;3449;48.728;8.968;2023-03-01T03:27:58;-2.60;99.90
6822;DHT22;3449;48.728;8.968;2023-03-01T03:30:27;-2.60;99.90
6822;DHT22;3449;48.728;8.968;2023-03-01T03:32:55;-2.60;99.90
6822;DHT22;3449;48.728;8.968;2023-03-01T03:35:24;-2.60;99.90
6822;DHT22;3449;48.728;8.968;2023-03-01T03:37:53;-2.40;99.90
6822;DHT22;3449;48.728;8.968;2023-03-01T03:40:31;-2.50;99.90
6822;DHT22;3449;48.728;8.968;2023-03-01T03:42:58;-2.50;99.90
6822;DHT22;3449;48.728;8.968;2023-03-01T03:45:25;-2.40;99.90
6822;DHT22;3449;48.728;8.968;2023-03-01T03:47:52;-2.40;99.90
6822;DHT22;3449;48.728;8.968;2023-03-01T03:50:19;-2.40;99.90
6822;DHT22;3449;48.728;8.968;2023-03-01T03:52:46;-2.30;99.90
6822;DHT22;3449;48.728;8.968;2023-03-01T03:55:14;-2.30;99.90
6822;DHT22;3449;48.728;8.968;2023-03-01T03:57:45;-2.30;99.90
6822;DHT22;3449;48.728;8.968;2023-03-01T04:00:18;-2.30;99.90
6822;DHT22;3449;48.728;8.968;2023-03-01T04:02:47;-2.30;99.90
6822;DHT22;3449;48.728;8.968;2023-03-01T04:05:16;-2.30;99.90
6822;DHT22;3449;48.728;8.968;2023-03-01T04:07:44;-2.20;99.90
6822;DHT22;3449;48.728;8.968;2023-03-01T04:10:15;-2.20;99.90
6822;DHT22;3449;48.728;8.968;2023-03-01T04:12:42;-2.20;99.90
6822;DHT22;3449;48.728;8.968;2023-03-01T04:15:11;-2.20;99.90
6822;DHT22;3449;48.728;8.968;2023-03-01T04:17:39;-2.20;99.90
6822;DHT22;3449;48.728;8.968;2023-03-01T04:20:08;-2.20;99.90
6822;DHT22;3449;48.728;8.968;2023-03-01T04:22:36;-2.20;99.90
6822;DHT22;3449;48.728;8.968;2023-03-01T04:25:03;-2.20;99.90
6822;DHT22;3449;48.728;8.968;2023-03-01T04:27:33;-2.20;99.90
6822;DHT22;3449;48.728;8.968;2023-03-01T04:30:00;-2.20;99.90
6822;DHT22;3449;48.728;8.968;2023-03-01T04:32:27;-2.30;99.90
6822;DHT22;3449;48.728;8.968;2023-03-01T04:34:54;-2.20;99.90
6822;DHT22;3449;48.728;8.968;2023-03-01T04:37:21;-2.20;99.90
6822;DHT22;3449;48.728;8.968;2023-03-01T04:39:47;-2.20;99.90
6822;DHT22;3449;48.728;8.968;2023-03-01T04:42:15;-2.20;99.90
6822;DHT22;3449;48.728;8.968;2023-03-01T04:44:43;-2.20;99.90
6822;DHT22;3449;48.728;8.968;2023-03-01T04:47:11;-2.10;99.90
6822;DHT22;3449;48.728;8.968;2023-03-01T04:49:38;-2.10;99.90
6822;DHT22;3449;48.728;8.968;2023-03-01T04:52:05;-2.10;99.90
6822;DHT22;3449;48.728;8.968;2023-03-01T04:54:33;-2.10;99.90
6822;DHT22;3449;48.728;8.968;2023-03-01T04:57:01;-2.10;99.90
6822;DHT22;3449;48.728;8.968;2023-03-01T04:59:28;-2.10;99.90
6822;DHT22;3449;48.728;8.968;2023-03-01T05:01:56;-2.10;99.90
6822;DHT22;3449;48.728;8.968;2023-03-01T05:04:25;-2.10;99.90
6822;DHT22;3449;48.728;8.968;2023-03-01T05:06:52;-2.10;99.90
6822;DHT22;3449;48.728;8.968;2023-03-01T05:09:20;-2.10;99.90
6822;DHT22;3449;48.728;8.968;2023-03-01T05:11:47;-2.10;99.90
6822;DHT22;3449;48.728;8.968;2023-03-01T05:14:13;-2.10;99.90
6822;DHT22;3449;48.728;8.968;2023-03-01T05:16:40;-2.10;99.90
6822;DHT22;3449;48.728;8.968;2023-03-01T05:19:09;-2.00;99.90
6822;DHT22;3449;48.728;8.968;2023-03-01T05:21:41;-2.00;99.90
6822;DHT22;3449;48.728;8.968;2023-03-01T05:24:21;-2.00;99.90
6822;DHT22;3449;48.728;8.968;2023-03-01T05:26:48;-2.00;99.90
6822;DHT22;3449;48.728;8.968;2023-03-01T05:29:17;-2.00;99.90
6822;DHT22;3449;48.728;8.968;2023-03-01T05:31:51;-2.00;99.90
6822;DHT22;3449;48.728;8.968;2023-03-01T05:34:19;-2.00;99.90
6822;DHT22;3449;48.728;8.968;2023-03-01T05:36:48;-1.90;99.90
6822;DHT22;3449;48.728;8.968;2023-03-01T05:39:19;-1.90;99.90
6822;DHT22;3449;48.728;8.968;2023-03-01T05:41:46;-1.90;99.90
6822;DHT22;3449;48.728;8.968;2023-03-01T05:44:13;-1.80;99.90
6822;DHT22;3449;48.728;8.968;2023-03-01T05:46:41;-1.90;99.90
6822;DHT22;3449;48.728;8.968;2023-03-01T05:49:08;-2.00;99.90
6822;DHT22;3449;48.728;8.968;2023-03-01T05:51:36;-1.90;99.90
6822;DHT22;3449;48.728;8.968;2023-03-01T05:54:03;-1.90;99.90
6822;DHT22;3449;48.728;8.968;2023-03-01T05:56:32;-1.90;99.90
6822;DHT22;3449;48.728;8.968;2023-03-01T05:59:00;-1.90;99.90
6822;DHT22;3449;48.728;8.968;2023-03-01T06:01:27;-1.90;99.90
6822;DHT22;3449;48.728;8.968;2023-03-01T06:03:55;-1.90;99.90
6822;DHT22;3449;48.728;8.968;2023-03-01T06:06:22;-1.90;99.90
6822;DHT22;3449;48.728;8.968;2023-03-01T06:08:51;-1.90;99.90
6822;DHT22;3449;48.728;8.968;2023-03-01T06:11:18;-1.90;99.90
6822;DHT22;3449;48.728;8.968;2023-03-01T06:13:46;-1.90;99.90
6822;DHT22;3449;48.728;8.968;2023-03-01T06:16:13;-1.90;99.90
6822;DHT22;3449;48.728;8.968;2023-03-01T06:18:40;-1.90;99.90
6822;DHT22;3449;48.728;8.968;2023-03-01T06:21:07;-1.90;99.90
6822;DHT22;3449;48.728;8.968;2023-03-01T06:23:35;-1.90;99.90
6822;DHT22;3449;48.728;8.968;2023-03-01T06:26:07;-1.90;99.90
6822;DHT22;3449;48.728;8.968;2023-03-01T06:28:34;-1.80;99.90
6822;DHT22;3449;48.728;8.968;2023-03-01T06:31:02;-1.80;99.90
6822;DHT22;3449;48.728;8.968;2023-03-01T06:33:29;-1.80;99.90
6822;DHT22;3449;48.728;8.968;2023-03-01T06:35:55;-1.80;99.90
6822;DHT22;3449;48.728;8.968;2023-03-01T06:38:22;-1.80;99.90
6822;DHT22;3449;48.728;8.968;2023-03-01T06:40:52;-1.80;99.90
6822;DHT22;3449;48.728;8.968;2023-03-01T06:43:21;-1.80;99.90
6822;DHT22;3449;48.728;8.968;2023-03-01T06:45:48;-1.80;99.90
6822;DHT22;3449;48.728;8.968;2023-03-01T06:48:16;-1.70;99.90
6822;DHT22;3449;48.728;8.968;2023-03-01T06:50:42;-1.70;99.90
6822;DHT22;3449;48.728;8.968;2023-03-01T06:53:09;-1.70;99.90
6822;DHT22;3449;48.728;8.968;2023-03-01T06:55:36;-1.70;99.90
6822;DHT22;3449;48.728;8.968;2023-03-01T06:58:03;-1.60;99.90
6822;DHT22;3449;48.728;8.968;2023-03-01T07:00:32;-1.60;99.90
6822;DHT22;3449;48.728;8.968;2023-03-01T07:03:00;-1.60;99.90
6822;DHT22;3449;48.728;8.968;2023-03-01T07:05:28;-1.60;99.90
6822;DHT22;3449;48.728;8.968;2023-03-01T07:07:55;-1.50;99.90
6822;DHT22;3449;48.728;8.968;2023-03-01T07:10:22;-1.60;99.90
6822;DHT22;3449;48.728;8.968;2023-03-01T07:12:49;-1.50;99.90
6822;DHT22;3449;48.728;8.968;2023-03-01T07:15:16;-1.50;99.90
6822;DHT22;3449;48.728;8.968;2023-03-01T07:17:49;-1.40;99.90
6822;DHT22;3449;48.728;8.968;2023-03-01T07:20:17;-1.10;99.90
6822;DHT22;3449;48.728;8.968;2023-03-01T07:22:44;-1.00;99.90
6822;DHT22;3449;48.728;8.968;2023-03-01T07:25:11;-1.00;99.90
6822;DHT22;3449;48.728;8.968;2023-03-01T07:27:38;-0.90;99.90
6822;DHT22;3449;48.728;8.968;2023-03-01T07:30:06;-0.80;99.90
6822;DHT22;3449;48.728;8.968;2023-03-01T07:32:33;-0.80;99.90
6822;DHT22;3449;48.728;8.968;2023-03-01T07:35:01;-0.70;99.90
6822;DHT22;3449;48.728;8.968;2023-03-01T07:37:28;-0.70;99.90
6822;DHT22;3449;48.728;8.968;2023-03-01T07:39:55;-0.70;99.90
6822;DHT22;3449;48.728;8.968;2023-03-01T07:42:22;-0.50;99.90
6822;DHT22;3449;48.728;8.968;2023-03-01T07:44:49;-0.40;99.90
6822;DHT22;3449;48.728;8.968;2023-03-01T07:47:16;-0.40;99.90
6822;DHT22;3449;48.728;8.968;2023-03-01T07:49:43;-0.40;99.90
6822;DHT22;3449;48.728;8.968;2023-03-01T07:52:11;-0.30;99.90
6822;DHT22;3449;48.728;8.968;2023-03-01T07:54:38;-0.20;99.90
6822;DHT22;3449;48.728;8.968;2023-03-01T07:57:05;-0.10;99.90
6822;DHT22;3449;48.728;8.968;2023-03-01T07:59:32;-0.10;99.90
6822;DHT22;3449;48.728;8.968;2023-03-01T08:01:59;0.00;99.90
6822;DHT22;3449;48.728;8.968;2023-03-01T08:04:26;0.10;99.90
6822;DHT22;3449;48.728;8.968;2023-03-01T08:06:53;0.20;99.90
6822;DHT22;3449;48.728;8.968;2023-03-01T08:09:22;0.30;99.90
6822;DHT22;3449;48.728;8.968;2023-03-01T08:11:48;0.20;99.90
6822;DHT22;3449;48.728;8.968;2023-03-01T08:14:15;0.20;99.90
6822;DHT22;3449;48.728;8.968;2023-03-01T08:16:42;0.30;99.90
6822;DHT22;3449;48.728;8.968;2023-03-01T08:19:11;0.40;99.90
6822;DHT22;3449;48.728;8.968;2023-03-01T08:21:38;0.40;99.90
6822;DHT22;3449;48.728;8.968;2023-03-01T08:24:06;0.40;99.90
6822;DHT22;3449;48.728;8.968;2023-03-01T08:26:35;0.60;99.90
6822;DHT22;3449;48.728;8.968;2023-03-01T08:29:02;0.60;99.90
6822;DHT22;3449;48.728;8.968;2023-03-01T08:31:31;0.80;99.90
6822;DHT22;3449;48.728;8.968;2023-03-01T08:34:02;0.90;99.90
6822;DHT22;3449;48.728;8.968;2023-03-01T08:36:32;1.00;99.90
6822;DHT22;3449;48.728;8.968;2023-03-01T08:38:59;1.00;99.90
6822;DHT22;3449;48.728;8.968;2023-03-01T08:41:27;1.10;99.90
6822;DHT22;3449;48.728;8.968;2023-03-01T08:43:55;1.20;99.90
6822;DHT22;3449;48.728;8.968;2023-03-01T08:46:25;1.10;99.90
6822;DHT22;3449;48.728;8.968;2023-03-01T08:48:52;1.30;99.90
6822;DHT22;3449;48.728;8.968;2023-03-01T08:51:20;1.40;99.90
6822;DHT22;3449;48.728;8.968;2023-03-01T08:53:48;1.60;99.90
6822;DHT22;3449;48.728;8.968;2023-03-01T08:56:16;1.80;99.90
6822;DHT22;3449;48.728;8.968;2023-03-01T08:58:44;1.70;99.90
6822;DHT22;3449;48.728;8.968;2023-03-01T09:01:15;1.90;99.90
6822;DHT22;3449;48.728;8.968;2023-03-01T09:03:47;2.10;99.90
6822;DHT22;3449;48.728;8.968;2023-03-01T09:06:14;2.00;99.90
6822;DHT22;3449;48.728;8.968;2023-03-01T09:08:42;2.20;99.90
6822;DHT22;3449;48.728;8.968;2023-03-01T09:11:11;2.30;99.90
6822;DHT22;3449;48.728;8.968;2023-03-01T09:13:38;2.30;99.90
6822;DHT22;3449;48.728;8.968;2023-03-01T09:16:07;2.50;99.90
6822;DHT22;3449;48.728;8.968;2023-03-01T09:18:35;2.50;99.90
6822;DHT22;3449;48.728;8.968;2023-03-01T09:21:03;2.60;99.90
6822;DHT22;3449;48.728;8.968;2023-03-01T09:23:33;2.80;99.90
6822;DHT22;3449;48.728;8.968;2023-03-01T09:26:02;3.00;99.90
6822;DHT22;3449;48.728;8.968;2023-03-01T09:28:29;3.00;99.90
6822;DHT22;3449;48.728;8.968;2023-03-01T09:30:58;2.90;99.90
6822;DHT22;3449;48.728;8.968;2023-03-01T09:33:25;2.70;99.90
6822;DHT22;3449;48.728;8.968;2023-03-01T09:35:57;2.90;99.90
6822;DHT22;3449;48.728;8.968;2023-03-01T09:38:24;2.90;99.90
6822;DHT22;3449;48.728;8.968;2023-03-01T09:40:51;3.20;99.90
6822;DHT22;3449;48.728;8.968;2023-03-01T09:43:23;3.10;99.90
6822;DHT22;3449;48.728;8.968;2023-03-01T09:45:53;2.90;99.90
6822;DHT22;3449;48.728;8.968;2023-03-01T09:48:25;3.00;99.90
6822;DHT22;3449;48.728;8.968;2023-03-01T09:50:53;3.20;99.90
6822;DHT22;3449;48.728;8.968;2023-03-01T09:53:24;3.10;99.90
6822;DHT22;3449;48.728;8.968;2023-03-01T09:55:58;3.20;99.90
6822;DHT22;3449;48.728;8.968;2023-03-01T09:58:38;3.30;99.90
6822;DHT22;3449;48.728;8.968;2023-03-01T10:01:27;3.50;99.90
6822;DHT22;3449;48.728;8.968;2023-03-01T10:04:09;3.60;99.90
6822;DHT22;3449;48.728;8.968;2023-03-01T10:06:39;3.50;99.90
6822;DHT22;3449;48.728;8.968;2023-03-01T10:09:13;3.60;99.90
6822;DHT22;3449;48.728;8.968;2023-03-01T10:11:45;3.80;99.90
6822;DHT22;3449;48.728;8.968;2023-03-01T10:14:28;3.60;99.90
6822;DHT22;3449;48.728;8.968;2023-03-01T10:17:03;3.80;99.90
6822;DHT22;3449;48.728;8.968;2023-03-01T10:19:34;3.60;99.90
6822;DHT22;3449;48.728;8.968;2023-03-01T10:22:09;4.00;99.90
6822;DHT22;3449;48.728;8.968;2023-03-01T10:24:39;4.20;99.90
6822;DHT22;3449;48.728;8.968;2023-03-01T10:27:09;4.20;99.90
6822;DHT22;3449;48.728;8.968;2023-03-01T10:29:40;4.40;99.90
6822;DHT22;3449;48.728;8.968;2023-03-01T10:32:10;4.50;99.90
6822;DHT22;3449;48.728;8.968;2023-03-01T10:34:37;4.60;99.90
6822;DHT22;3449;48.728;8.968;2023-03-01T10:37:11;4.90;99.90
6822;DHT22;3449;48.728;8.968;2023-03-01T10:39:55;4.70;99.90
6822;DHT22;3449;48.728;8.968;2023-03-01T10:42:26;4.90;99.90
6822;DHT22;3449;48.728;8.968;2023-03-01T10:44:54;4.90;99.90
6822;DHT22;3449;48.728;8.968;2023-03-01T10:47:22;5.40;99.90
6822;DHT22;3449;48.728;8.968;2023-03-01T10:49:53;5.30;99.90
6822;DHT22;3449;48.728;8.968;2023-03-01T10:52:22;5.50;99.90
6822;DHT22;3449;48.728;8.968;2023-03-01T10:54:56;5.40;99.90
6822;DHT22;3449;48.728;8.968;2023-03-01T10:57:33;5.70;99.90
6822;DHT22;3449;48.728;8.968;2023-03-01T11:00:16;5.60;99.90
6822;DHT22;3449;48.728;8.968;2023-03-01T11:02:47;5.90;99.90
6822;DHT22;3449;48.728;8.968;2023-03-01T11:05:21;6.30;99.90
6822;DHT22;3449;48.728;8.968;2023-03-01T11:07:51;6.40;99.90
6822;DHT22;3449;48.728;8.968;2023-03-01T11:10:22;6.00;99.90
6822;DHT22;3449;48.728;8.968;2023-03-01T11:12:51;6.10;99.90
6822;DHT22;3449;48.728;8.968;2023-03-01T11:15:25;6.00;99.90
6822;DHT22;3449;48.728;8.968;2023-03-01T11:17:52;5.80;99.90
6822;DHT22;3449;48.728;8.968;2023-03-01T11:20:25;6.30;99.90
6822;DHT22;3449;48.728;8.968;2023-03-01T11:22:56;6.10;99.90
6822;DHT22;3449;48.728;8.968;2023-03-01T11:25:27;5.80;99.90
6822;DHT22;3449;48.728;8.968;2023-03-01T11:27:56;6.10;99.90
6822;DHT22;3449;48.728;8.968;2023-03-01T11:30:28;6.20;99.90
6822;DHT22;3449;48.728;8.968;2023-03-01T11:33:06;5.90;99.90
6822;DHT22;3449;48.728;8.968;2023-03-01T11:35:42;5.80;99.90
6822;DHT22;3449;48.728;8.968;2023-03-01T11:38:18;5.80;99.90
6822;DHT22;3449;48.728;8.968;2023-03-01T11:40:49;5.70;99.90
6822;DHT22;3449;48.728;8.968;2023-03-01T11:43:23;5.70;99.90
6822;DHT22;3449;48.728;8.968;2023-03-01T11:46:23;6.10;99.90
6822;DHT22;3449;48.728;8.968;2023-03-01T11:49:01;6.40;99.90
6822;DHT22;3449;48.728;8.968;2023-03-01T11:51:43;6.80;99.90
6822;DHT22;3449;48.728;8.968;2023-03-01T11:54:24;6.90;99.90
6822;DHT22;3449;48.728;8.968;2023-03-01T11:56:57;6.70;99.90
6822;DHT22;3449;48.728;8.968;2023-03-01T12:02:59;6.70;99.90
6822;DHT22;3449;48.728;8.968;2023-03-01T12:05:54;7.20;99.90
6822;DHT22;3449;48.728;8.968;2023-03-01T12:08:35;7.10;99.90
6822;DHT22;3449;48.728;8.968;2023-03-01T12:11:10;7.50;99.90
6822;DHT22;3449;48.728;8.968;2023-03-01T12:13:54;7.50;99.90
6822;DHT22;3449;48.728;8.968;2023-03-01T12:16:39;7.70;99.90
6822;DHT22;3449;48.728;8.968;2023-03-01T12:19:31;7.60;99.90
6822;DHT22;3449;48.728;8.968;2023-03-01T12:22:13;7.50;99.90
6822;DHT22;3449;48.728;8.968;2023-03-01T12:25:10;7.80;99.90
6822;DHT22;3449;48.728;8.968;2023-03-01T12:27:55;7.50;99.90
6822;DHT22;3449;48.728;8.968;2023-03-01T12:30:35;7.40;99.90
6822;DHT22;3449;48.728;8.968;2023-03-01T12:33:17;7.20;99.90
6822;DHT22;3449;48.728;8.968;2023-03-01T12:38:59;8.10;99.90
6822;DHT22;3449;48.728;8.968;2023-03-01T12:41:46;8.10;99.90
6822;DHT22;3449;48.728;8.968;2023-03-01T12:44:29;8.20;99.90
6822;DHT22;3449;48.728;8.968;2023-03-01T12:47:12;8.20;99.90
6822;DHT22;3449;48.728;8.968;2023-03-01T12:49:45;8.30;99.90
6822;DHT22;3449;48.728;8.968;2023-03-01T12:52:19;8.20;99.90
6822;DHT22;3449;48.728;8.968;2023-03-01T12:54:49;8.30;99.90
6822;DHT22;3449;48.728;8.968;2023-03-01T12:57:23;8.20;99.90
6822;DHT22;3449;48.728;8.968;2023-03-01T13:00:05;8.30;99.90
6822;DHT22;3449;48.728;8.968;2023-03-01T13:02:41;8.10;99.90
6822;DHT22;3449;48.728;8.968;2023-03-01T13:05:24;8.30;99.90
6822;DHT22;3449;48.728;8.968;2023-03-01T13:07:57;8.30;99.90
6822;DHT22;3449;48.728;8.968;2023-03-01T13:10:33;8.70;99.90
6822;DHT22;3449;48.728;8.968;2023-03-01T13:13:08;8.80;99.90
6822;DHT22;3449;48.728;8.968;2023-03-01T13:15:38;8.90;99.90
6822;DHT22;3449;48.728;8.968;2023-03-01T13:18:31;8.90;99.90
6822;DHT22;3449;48.728;8.968;2023-03-01T13:21:00;9.10;99.90
6822;DHT22;3449;48.728;8.968;2023-03-01T13:23:30;9.30;99.90
6822;DHT22;3449;48.728;8.968;2023-03-01T13:26:16;9.10;99.90
6822;DHT22;3449;48.728;8.968;2023-03-01T13:29:01;8.90;99.90
6822;DHT22;3449;48.728;8.968;2023-03-01T13:31:58;8.70;99.90
6822;DHT22;3449;48.728;8.968;2023-03-01T13:34:48;8.70;99.90
6822;DHT22;3449;48.728;8.968;2023-03-01T13:37:23;8.60;99.90
6822;DHT22;3449;48.728;8.968;2023-03-01T13:39:56;8.70;99.90
6822;DHT22;3449;48.728;8.968;2023-03-01T13:42:44;8.90;99.90
6822;DHT22;3449;48.728;8.968;2023-03-01T13:45:20;8.80;99.90
6822;DHT22;3449;48.728;8.968;2023-03-01T13:47:52;8.70;99.90
6822;DHT22;3449;48.728;8.968;2023-03-01T13:50:24;8.40;99.90
6822;DHT22;3449;48.728;8.968;2023-03-01T13:52:54;8.40;99.90
6822;DHT22;3449;48.728;8.968;2023-03-01T13:55:26;8.50;99.90
6822;DHT22;3449;48.728;8.968;2023-03-01T13:57:57;8.70;99.90
6822;DHT22;3449;48.728;8.968;2023-03-01T14:00:28;8.90;99.90
6822;DHT22;3449;48.728;8.968;2023-03-01T14:03:04;8.80;99.90
6822;DHT22;3449;48.728;8.968;2023-03-01T14:05:33;8.70;99.90
6822;DHT22;3449;48.728;8.968;2023-03-01T14:08:01;9.00;99.90
6822;DHT22;3449;48.728;8.968;2023-03-01T14:10:36;9.50;99.90
6822;DHT22;3449;48.728;8.968;2023-03-01T14:13:22;9.20;99.90
6822;DHT22;3449;48.728;8.968;2023-03-01T14:16:05;9.00;99.90
6822;DHT22;3449;48.728;8.968;2023-03-01T14:18:39;8.60;99.90
6822;DHT22;3449;48.728;8.968;2023-03-01T14:21:13;8.90;99.90
6822;DHT22;3449;48.728;8.968;2023-03-01T14:23:41;8.70;99.90
6822;DHT22;3449;48.728;8.968;2023-03-01T14:26:09;8.70;99.90
6822;DHT22;3449;48.728;8.968;2023-03-01T14:28:38;9.00;99.90
6822;DHT22;3449;48.728;8.968;2023-03-01T14:31:31;9.10;99.90
6822;DHT22;3449;48.728;8.968;2023-03-01T14:33:59;9.20;99.90
6822;DHT22;3449;48.728;8.968;2023-03-01T14:36:30;8.90;99.90
6822;DHT22;3449;48.728;8.968;2023-03-01T14:38:59;8.50;99.90
6822;DHT22;3449;48.728;8.968;2023-03-01T14:41:33;8.50;99.90
6822;DHT22;3449;48.728;8.968;2023-03-01T14:44:03;8.60;99.90
6822;DHT22;3449;48.728;8.968;2023-03-01T14:46:33;8.50;99.90
6822;DHT22;3449;48.728;8.968;2023-03-01T14:49:05;8.30;99.90
6822;DHT22;3449;48.728;8.968;2023-03-01T14:51:37;8.00;99.90
6822;DHT22;3449;48.728;8.968;2023-03-01T14:54:13;7.70;99.90
6822;DHT22;3449;48.728;8.968;2023-03-01T14:56:45;7.60;99.90
6822;DHT22;3449;48.728;8.968;2023-03-01T14:59:12;7.50;99.90
6822;DHT22;3449;48.728;8.968;2023-03-01T15:01:40;7.20;99.90
6822;DHT22;3449;48.728;8.968;2023-03-01T15:04:11;7.10;99.90
6822;DHT22;3449;48.728;8.968;2023-03-01T15:06:40;7.00;99.90
6822;DHT22;3449;48.728;8.968;2023-03-01T15:09:13;7.00;99.90
6822;DHT22;3449;48.728;8.968;2023-03-01T15:11:41;6.90;99.90
6822;DHT22;3449;48.728;8.968;2023-03-01T15:14:27;6.60;99.90
6822;DHT22;3449;48.728;8.968;2023-03-01T15:16:55;6.50;99.90
6822;DHT22;3449;48.728;8.968;2023-03-01T15:19:24;6.40;99.90
6822;DHT22;3449;48.728;8.968;2023-03-01T15:21:55;6.40;99.90
6822;DHT22;3449;48.728;8.968;2023-03-01T15:24:25;6.20;99.90
6822;DHT22;3449;48.728;8.968;2023-03-01T15:26:57;6.10;99.90
6822;DHT22;3449;48.728;8.968;2023-03-01T15:29:29;6.00;99.90
6822;DHT22;3449;48.728;8.968;2023-03-01T15:32:00;6.10;99.90
6822;DHT22;3449;48.728;8.968;2023-03-01T15:34:30;6.00;99.90
6822;DHT22;3449;48.728;8.968;2023-03-01T15:37:01;6.00;99.90
6822;DHT22;3449;48.728;8.968;2023-03-01T15:39:40;6.00;99.90
6822;DHT22;3449;48.728;8.968;2023-03-01T15:42:11;5.90;99.90
6822;DHT22;3449;48.728;8.968;2023-03-01T15:44:39;5.90;99.90
6822;DHT22;3449;48.728;8.968;2023-03-01T15:47:26;5.90;99.90
6822;DHT22;3449;48.728;8.968;2023-03-01T15:49:54;5.80;99.90
6822;DHT22;3449;48.728;8.968;2023-03-01T15:52:25;5.80;99.90
6822;DHT22;3449;48.728;8.968;2023-03-01T15:54:56;5.70;99.90
6822;DHT22;3449;48.728;8.968;2023-03-01T15:57:23;5.60;99.90
6822;DHT22;3449;48.728;8.968;2023-03-01T15:59:50;5.60;99.90
6822;DHT22;3449;48.728;8.968;2023-03-01T16:02:17;5.50;99.90
6822;DHT22;3449;48.728;8.968;2023-03-01T16:04:46;5.50;99.90
6822;DHT22;3449;48.728;8.968;2023-03-01T16:07:14;5.50;99.90
6822;DHT22;3449;48.728;8.968;2023-03-01T16:09:42;5.50;99.90
6822;DHT22;3449;48.728;8.968;2023-03-01T16:12:14;5.50;99.90
6822;DHT22;3449;48.728;8.968;2023-03-01T16:14:42;5.40;99.90
6822;DHT22;3449;48.728;8.968;2023-03-01T16:17:08;5.40;99.90
6822;DHT22;3449;48.728;8.968;2023-03-01T16:19:36;5.30;99.90
6822;DHT22;3449;48.728;8.968;2023-03-01T16:22:04;5.20;99.90
6822;DHT22;3449;48.728;8.968;2023-03-01T16:24:31;5.20;99.90
6822;DHT22;3449;48.728;8.968;2023-03-01T16:26:59;5.20;99.90
6822;DHT22;3449;48.728;8.968;2023-03-01T16:29:26;5.10;99.90
6822;DHT22;3449;48.728;8.968;2023-03-01T16:31:54;5.10;99.90
6822;DHT22;3449;48.728;8.968;2023-03-01T16:34:21;5.10;99.90
6822;DHT22;3449;48.728;8.968;2023-03-01T16:36:48;5.00;99.90
6822;DHT22;3449;48.728;8.968;2023-03-01T16:39:16;5.00;99.90